This is the latest recevied weather packets stored in our database for station/object KD4WXI. If no packets are shown the sender has not sent any weather packets the latest 10 day(s).
| Time | Temp. | Humidity | Pressure | Rain* | Wind** | Luminosity | Snow |
|---|---|---|---|---|---|---|---|
| 1777561865 | 19.44° C | 63% | 1011.9 hPa | 0 mm | - | 624 W/m² | - |
| 1777561562 | 20.56° C | 63% | 1011.8 hPa | 0 mm | - | 614 W/m² | - |
| 1777561257 | 20.56° C | 62% | 1012 hPa | 0 mm | - | 606 W/m² | - |
| 1777560956 | 19.44° C | 64% | 1011.8 hPa | 0 mm | - | 607 W/m² | - |
| 1777560653 | 18.89° C | 66% | 1012 hPa | 0 mm | - | 582 W/m² | - |
| 1777560351 | 19.44° C | 66% | 1011.7 hPa | 0 mm | - | 521 W/m² | - |
| 1777560049 | 18.89° C | 72% | 1012 hPa | 0 mm | - | 329 W/m² | - |
| 1777559744 | 18.89° C | 66% | 1012 hPa | 0 mm | - | 511 W/m² | - |
| 1777559441 | 17.78° C | 71% | 1012 hPa | 0 mm | - | 407 W/m² | - |
| 1777559139 | 17.22° C | 70% | 1012.2 hPa | 0 mm | - | 261 W/m² | - |
| 1777558838 | 17.22° C | 73% | 1012.2 hPa | 0 mm | - | 218 W/m² | - |
| 1777558534 | 16.67° C | 76% | 1012.3 hPa | 0 mm | - | 244 W/m² | - |
| 1777558231 | 15.56° C | 85% | 1012.5 hPa | 0 mm | - | 268 W/m² | - |
| 1777557926 | 15.56° C | 90% | 1012.4 hPa | 0 mm | - | 188 W/m² | - |
| 1777557624 | 15.56° C | 88% | 1012.3 hPa | 0 mm | - | 132 W/m² | - |
| 1777557320 | 15° C | 90% | 1012 hPa | 0 mm | - | 125 W/m² | - |
| 1777557016 | 14.44° C | 92% | 1012.4 hPa | 0 mm | - | 115 W/m² | - |
| 1777556712 | 14.44° C | 92% | 1012.4 hPa | 0 mm | - | 91 W/m² | - |
| 1777556409 | 14.44° C | 93% | 1012.3 hPa | 0 mm | - | 92 W/m² | - |
| 1777556103 | 13.89° C | 93% | 1012.3 hPa | 0 mm | - | 68 W/m² | - |
| 1777555804 | 13.89° C | 93% | 1012.2 hPa | 0 mm | - | 32 W/m² | - |
| 1777555500 | 13.89° C | 93% | 1012.8 hPa | 0 mm | - | 28 W/m² | - |
| 1777555196 | 13.89° C | 94% | 1012.9 hPa | 0 mm | - | 25 W/m² | - |
| 1777554894 | 13.89° C | 95% | 1012.6 hPa | 0 mm | - | 25 W/m² | - |
| 1777554590 | 13.89° C | 95% | 1012.5 hPa | 0 mm | - | 21 W/m² | - |
* Rain latest hour (hover to see other rain measurements)
** Current wind speed in m/s (hover to see current wind gust speed)